Terminal Aerodrome Forecast
Issued by NWS

Home | Current Version | Previous Version | Text Only | Print | Product List | Glossary On
Versions: 1 2 3 4 5 6 7 8 9 10 11 12 13 14 15 16 17 18 19
228
FTUS46 KSGX 210357 AAD
TAFPSP
TAF AMD
KPSP 210357Z 2104/2124 05006KT P6SM VCSH SCT020 BKN060 OVC110
     FM210900 35012G20KT P6SM BKN060
     FM211400 33012KT P6SM SCT080=

USA.gov is the U.S. government's official web portal to all federal, state and local government web resources and services.